sensor_id;sensor_type;location;lat;lon;timestamp;temperature;humidity
15288;DHT22;7745;48.708;9.026;2023-03-12T00:02:10;-0.70;99.90
15288;DHT22;7745;48.708;9.026;2023-03-12T00:04:37;-0.70;99.90
15288;DHT22;7745;48.708;9.026;2023-03-12T00:07:04;-0.70;99.90
15288;DHT22;7745;48.708;9.026;2023-03-12T00:09:34;-0.70;99.90
15288;DHT22;7745;48.708;9.026;2023-03-12T00:12:01;-0.80;99.90
15288;DHT22;7745;48.708;9.026;2023-03-12T00:14:29;-0.80;99.90
15288;DHT22;7745;48.708;9.026;2023-03-12T00:16:56;-0.80;99.90
15288;DHT22;7745;48.708;9.026;2023-03-12T00:19:23;-0.90;99.90
15288;DHT22;7745;48.708;9.026;2023-03-12T00:21:50;-0.90;99.90
15288;DHT22;7745;48.708;9.026;2023-03-12T00:24:17;-0.80;99.90
15288;DHT22;7745;48.708;9.026;2023-03-12T00:26:43;-0.80;99.90
15288;DHT22;7745;48.708;9.026;2023-03-12T00:29:11;-0.80;99.90
15288;DHT22;7745;48.708;9.026;2023-03-12T00:31:39;-0.80;99.90
15288;DHT22;7745;48.708;9.026;2023-03-12T00:34:06;-0.80;99.90
15288;DHT22;7745;48.708;9.026;2023-03-12T00:36:32;-0.80;99.90
15288;DHT22;7745;48.708;9.026;2023-03-12T00:39:00;-0.80;99.90
15288;DHT22;7745;48.708;9.026;2023-03-12T00:41:27;-0.90;99.90
15288;DHT22;7745;48.708;9.026;2023-03-12T00:43:55;-1.00;99.90
15288;DHT22;7745;48.708;9.026;2023-03-12T00:46:22;-1.00;99.90
15288;DHT22;7745;48.708;9.026;2023-03-12T00:48:50;-0.90;99.90
15288;DHT22;7745;48.708;9.026;2023-03-12T00:51:17;-0.90;99.90
15288;DHT22;7745;48.708;9.026;2023-03-12T00:53:44;-0.90;99.90
15288;DHT22;7745;48.708;9.026;2023-03-12T00:56:11;-0.90;99.90
15288;DHT22;7745;48.708;9.026;2023-03-12T00:58:38;-1.00;99.90
15288;DHT22;7745;48.708;9.026;2023-03-12T01:01:07;-0.90;99.90
15288;DHT22;7745;48.708;9.026;2023-03-12T01:03:34;-0.90;99.90
15288;DHT22;7745;48.708;9.026;2023-03-12T01:06:02;-0.80;99.90
15288;DHT22;7745;48.708;9.026;2023-03-12T01:08:29;-0.80;99.90
15288;DHT22;7745;48.708;9.026;2023-03-12T01:10:56;-0.70;99.90
15288;DHT22;7745;48.708;9.026;2023-03-12T01:13:23;-0.70;99.90
15288;DHT22;7745;48.708;9.026;2023-03-12T01:15:50;-0.70;99.90
15288;DHT22;7745;48.708;9.026;2023-03-12T01:18:17;-0.70;99.90
15288;DHT22;7745;48.708;9.026;2023-03-12T01:20:44;-0.70;99.90
15288;DHT22;7745;48.708;9.026;2023-03-12T01:23:13;-0.70;99.90
15288;DHT22;7745;48.708;9.026;2023-03-12T01:25:40;-0.70;99.90
15288;DHT22;7745;48.708;9.026;2023-03-12T01:28:07;-0.70;99.90
15288;DHT22;7745;48.708;9.026;2023-03-12T01:30:34;-0.60;99.90
15288;DHT22;7745;48.708;9.026;2023-03-12T01:33:01;-0.60;99.90
15288;DHT22;7745;48.708;9.026;2023-03-12T01:35:28;-0.60;99.90
15288;DHT22;7745;48.708;9.026;2023-03-12T01:37:55;-0.60;99.90
15288;DHT22;7745;48.708;9.026;2023-03-12T01:40:23;-0.50;99.90
15288;DHT22;7745;48.708;9.026;2023-03-12T01:42:53;-0.50;99.90
15288;DHT22;7745;48.708;9.026;2023-03-12T01:45:59;-0.40;99.90
15288;DHT22;7745;48.708;9.026;2023-03-12T01:48:31;-0.40;99.90
15288;DHT22;7745;48.708;9.026;2023-03-12T01:50:59;-0.40;99.90
15288;DHT22;7745;48.708;9.026;2023-03-12T01:53:27;-0.40;99.90
15288;DHT22;7745;48.708;9.026;2023-03-12T01:55:56;-0.40;99.90
15288;DHT22;7745;48.708;9.026;2023-03-12T01:58:23;-0.40;99.90
15288;DHT22;7745;48.708;9.026;2023-03-12T02:00:51;-0.40;99.90
15288;DHT22;7745;48.708;9.026;2023-03-12T02:03:18;-0.30;99.90
15288;DHT22;7745;48.708;9.026;2023-03-12T02:05:50;-0.30;99.90
15288;DHT22;7745;48.708;9.026;2023-03-12T02:08:17;-0.20;99.90
15288;DHT22;7745;48.708;9.026;2023-03-12T02:10:45;-0.20;99.90
15288;DHT22;7745;48.708;9.026;2023-03-12T02:13:13;-0.20;99.90
15288;DHT22;7745;48.708;9.026;2023-03-12T02:15:40;-0.20;99.90
15288;DHT22;7745;48.708;9.026;2023-03-12T02:18:10;-0.20;99.90
15288;DHT22;7745;48.708;9.026;2023-03-12T02:20:41;-0.20;99.90
15288;DHT22;7745;48.708;9.026;2023-03-12T02:23:14;-0.10;99.90
15288;DHT22;7745;48.708;9.026;2023-03-12T02:25:45;-0.10;99.90
15288;DHT22;7745;48.708;9.026;2023-03-12T02:28:16;-0.20;99.90
15288;DHT22;7745;48.708;9.026;2023-03-12T02:30:46;-0.10;99.90
15288;DHT22;7745;48.708;9.026;2023-03-12T02:33:14;-0.10;99.90
15288;DHT22;7745;48.708;9.026;2023-03-12T02:35:41;-0.10;99.90
15288;DHT22;7745;48.708;9.026;2023-03-12T02:38:31;0.40;99.90
15288;DHT22;7745;48.708;9.026;2023-03-12T02:41:03;-0.10;99.90
15288;DHT22;7745;48.708;9.026;2023-03-12T02:43:31;-0.10;99.90
15288;DHT22;7745;48.708;9.026;2023-03-12T02:45:58;-0.10;99.90
15288;DHT22;7745;48.708;9.026;2023-03-12T02:48:25;0.00;99.90
15288;DHT22;7745;48.708;9.026;2023-03-12T02:50:51;0.00;99.90
15288;DHT22;7745;48.708;9.026;2023-03-12T02:53:19;0.00;99.90
15288;DHT22;7745;48.708;9.026;2023-03-12T02:55:46;0.10;99.90
15288;DHT22;7745;48.708;9.026;2023-03-12T02:58:14;0.10;99.90
15288;DHT22;7745;48.708;9.026;2023-03-12T03:00:41;0.10;99.90
15288;DHT22;7745;48.708;9.026;2023-03-12T03:03:08;0.10;99.90
15288;DHT22;7745;48.708;9.026;2023-03-12T03:05:34;0.10;99.90
15288;DHT22;7745;48.708;9.026;2023-03-12T03:08:03;0.10;99.90
15288;DHT22;7745;48.708;9.026;2023-03-12T03:10:30;0.20;99.90
15288;DHT22;7745;48.708;9.026;2023-03-12T03:12:57;0.20;99.90
15288;DHT22;7745;48.708;9.026;2023-03-12T03:15:25;0.20;99.90
15288;DHT22;7745;48.708;9.026;2023-03-12T03:17:52;0.20;99.90
15288;DHT22;7745;48.708;9.026;2023-03-12T03:20:19;0.20;99.90
15288;DHT22;7745;48.708;9.026;2023-03-12T03:22:47;0.20;99.90
15288;DHT22;7745;48.708;9.026;2023-03-12T03:25:13;0.20;99.90
15288;DHT22;7745;48.708;9.026;2023-03-12T03:27:40;0.20;99.90
15288;DHT22;7745;48.708;9.026;2023-03-12T03:30:08;0.20;99.90
15288;DHT22;7745;48.708;9.026;2023-03-12T03:32:38;0.30;99.90
15288;DHT22;7745;48.708;9.026;2023-03-12T03:35:06;0.30;99.90
15288;DHT22;7745;48.708;9.026;2023-03-12T03:37:32;0.30;99.90
15288;DHT22;7745;48.708;9.026;2023-03-12T03:39:59;0.40;99.90
15288;DHT22;7745;48.708;9.026;2023-03-12T03:42:27;0.30;99.90
15288;DHT22;7745;48.708;9.026;2023-03-12T03:44:53;0.30;99.90
15288;DHT22;7745;48.708;9.026;2023-03-12T03:47:21;0.40;99.90
15288;DHT22;7745;48.708;9.026;2023-03-12T03:49:49;0.40;99.90
15288;DHT22;7745;48.708;9.026;2023-03-12T03:52:15;0.40;99.90
15288;DHT22;7745;48.708;9.026;2023-03-12T03:54:42;0.40;99.90
15288;DHT22;7745;48.708;9.026;2023-03-12T03:57:09;0.40;99.90
15288;DHT22;7745;48.708;9.026;2023-03-12T03:59:36;0.40;99.90
15288;DHT22;7745;48.708;9.026;2023-03-12T04:02:02;0.40;99.90
15288;DHT22;7745;48.708;9.026;2023-03-12T04:04:29;0.40;99.90
15288;DHT22;7745;48.708;9.026;2023-03-12T04:06:58;0.40;99.90
15288;DHT22;7745;48.708;9.026;2023-03-12T04:09:24;0.40;99.90
15288;DHT22;7745;48.708;9.026;2023-03-12T04:11:51;0.50;99.90
15288;DHT22;7745;48.708;9.026;2023-03-12T04:14:18;0.50;99.90
15288;DHT22;7745;48.708;9.026;2023-03-12T04:16:45;0.60;99.90
15288;DHT22;7745;48.708;9.026;2023-03-12T04:19:11;0.70;99.90
15288;DHT22;7745;48.708;9.026;2023-03-12T04:21:38;0.80;99.90
15288;DHT22;7745;48.708;9.026;2023-03-12T04:24:07;0.80;99.90
15288;DHT22;7745;48.708;9.026;2023-03-12T04:26:38;0.90;99.90
15288;DHT22;7745;48.708;9.026;2023-03-12T04:29:05;0.90;99.90
15288;DHT22;7745;48.708;9.026;2023-03-12T04:31:32;1.00;99.90
15288;DHT22;7745;48.708;9.026;2023-03-12T04:33:59;1.10;99.90
15288;DHT22;7745;48.708;9.026;2023-03-12T04:36:26;1.10;99.90
15288;DHT22;7745;48.708;9.026;2023-03-12T04:38:53;1.10;99.90
15288;DHT22;7745;48.708;9.026;2023-03-12T04:41:21;1.10;99.90
15288;DHT22;7745;48.708;9.026;2023-03-12T04:43:47;1.10;99.90
15288;DHT22;7745;48.708;9.026;2023-03-12T04:46:14;1.10;99.90
15288;DHT22;7745;48.708;9.026;2023-03-12T04:48:41;1.10;99.90
15288;DHT22;7745;48.708;9.026;2023-03-12T04:51:08;1.10;99.90
15288;DHT22;7745;48.708;9.026;2023-03-12T04:53:35;1.10;99.90
15288;DHT22;7745;48.708;9.026;2023-03-12T04:56:02;1.10;99.90
15288;DHT22;7745;48.708;9.026;2023-03-12T04:58:31;1.10;99.90
15288;DHT22;7745;48.708;9.026;2023-03-12T05:00:57;1.10;99.90
15288;DHT22;7745;48.708;9.026;2023-03-12T05:03:24;1.20;99.90
15288;DHT22;7745;48.708;9.026;2023-03-12T05:05:51;1.20;99.90
15288;DHT22;7745;48.708;9.026;2023-03-12T05:08:18;1.20;99.90
15288;DHT22;7745;48.708;9.026;2023-03-12T05:10:45;1.20;99.90
15288;DHT22;7745;48.708;9.026;2023-03-12T05:13:52;1.20;99.90
15288;DHT22;7745;48.708;9.026;2023-03-12T05:16:19;1.20;99.90
15288;DHT22;7745;48.708;9.026;2023-03-12T05:18:46;1.30;99.90
15288;DHT22;7745;48.708;9.026;2023-03-12T05:21:15;1.30;99.90
15288;DHT22;7745;48.708;9.026;2023-03-12T05:23:42;1.30;99.90
15288;DHT22;7745;48.708;9.026;2023-03-12T05:26:15;1.30;99.90
15288;DHT22;7745;48.708;9.026;2023-03-12T05:28:42;1.30;99.90
15288;DHT22;7745;48.708;9.026;2023-03-12T05:31:12;1.30;99.90
15288;DHT22;7745;48.708;9.026;2023-03-12T05:33:41;1.30;99.90
15288;DHT22;7745;48.708;9.026;2023-03-12T05:36:09;1.30;99.90
15288;DHT22;7745;48.708;9.026;2023-03-12T05:38:37;1.40;99.90
15288;DHT22;7745;48.708;9.026;2023-03-12T05:41:04;1.40;99.90
15288;DHT22;7745;48.708;9.026;2023-03-12T05:43:31;1.40;99.90
15288;DHT22;7745;48.708;9.026;2023-03-12T05:46:00;1.40;99.90
15288;DHT22;7745;48.708;9.026;2023-03-12T05:48:30;1.40;99.90
15288;DHT22;7745;48.708;9.026;2023-03-12T05:50:57;1.50;99.90
15288;DHT22;7745;48.708;9.026;2023-03-12T05:53:24;1.40;99.90
15288;DHT22;7745;48.708;9.026;2023-03-12T05:55:51;1.50;99.90
15288;DHT22;7745;48.708;9.026;2023-03-12T05:58:18;1.50;99.90
15288;DHT22;7745;48.708;9.026;2023-03-12T06:00:45;1.50;99.90
15288;DHT22;7745;48.708;9.026;2023-03-12T06:03:11;1.60;99.90
15288;DHT22;7745;48.708;9.026;2023-03-12T06:05:40;1.60;99.90
15288;DHT22;7745;48.708;9.026;2023-03-12T06:08:06;1.60;99.90
15288;DHT22;7745;48.708;9.026;2023-03-12T06:10:33;1.70;99.90
15288;DHT22;7745;48.708;9.026;2023-03-12T06:13:02;1.70;99.90
15288;DHT22;7745;48.708;9.026;2023-03-12T06:15:29;1.80;99.90
15288;DHT22;7745;48.708;9.026;2023-03-12T06:17:56;1.80;99.90
15288;DHT22;7745;48.708;9.026;2023-03-12T06:20:23;1.80;99.90
15288;DHT22;7745;48.708;9.026;2023-03-12T06:22:51;1.80;99.90
15288;DHT22;7745;48.708;9.026;2023-03-12T06:25:17;1.80;99.90
15288;DHT22;7745;48.708;9.026;2023-03-12T06:27:44;1.90;99.90
15288;DHT22;7745;48.708;9.026;2023-03-12T06:30:12;1.90;99.90
15288;DHT22;7745;48.708;9.026;2023-03-12T06:32:39;1.90;99.90
15288;DHT22;7745;48.708;9.026;2023-03-12T06:35:07;2.20;99.90
15288;DHT22;7745;48.708;9.026;2023-03-12T06:37:34;1.90;99.90
15288;DHT22;7745;48.708;9.026;2023-03-12T06:40:02;2.00;99.90
15288;DHT22;7745;48.708;9.026;2023-03-12T06:42:34;2.00;99.90
15288;DHT22;7745;48.708;9.026;2023-03-12T06:45:00;2.00;99.90
15288;DHT22;7745;48.708;9.026;2023-03-12T06:47:28;2.00;99.90
15288;DHT22;7745;48.708;9.026;2023-03-12T06:49:55;2.10;99.90
15288;DHT22;7745;48.708;9.026;2023-03-12T06:52:21;2.10;99.90
15288;DHT22;7745;48.708;9.026;2023-03-12T06:54:48;2.20;99.90
15288;DHT22;7745;48.708;9.026;2023-03-12T06:57:16;2.20;99.90
15288;DHT22;7745;48.708;9.026;2023-03-12T06:59:52;2.30;99.90
15288;DHT22;7745;48.708;9.026;2023-03-12T07:02:19;2.40;99.90
15288;DHT22;7745;48.708;9.026;2023-03-12T07:04:46;2.30;99.90
15288;DHT22;7745;48.708;9.026;2023-03-12T07:07:12;2.40;99.90
15288;DHT22;7745;48.708;9.026;2023-03-12T07:09:41;2.40;99.90
15288;DHT22;7745;48.708;9.026;2023-03-12T07:12:08;2.40;99.90
15288;DHT22;7745;48.708;9.026;2023-03-12T07:14:36;2.40;99.90
15288;DHT22;7745;48.708;9.026;2023-03-12T07:17:03;2.50;99.90
15288;DHT22;7745;48.708;9.026;2023-03-12T07:19:30;2.50;99.90
15288;DHT22;7745;48.708;9.026;2023-03-12T07:21:57;2.60;99.90
15288;DHT22;7745;48.708;9.026;2023-03-12T07:24:24;2.60;99.90
15288;DHT22;7745;48.708;9.026;2023-03-12T07:26:51;2.60;99.90
15288;DHT22;7745;48.708;9.026;2023-03-12T07:29:17;2.60;99.90
15288;DHT22;7745;48.708;9.026;2023-03-12T07:31:45;2.60;99.90
15288;DHT22;7745;48.708;9.026;2023-03-12T07:34:12;3.00;99.90
15288;DHT22;7745;48.708;9.026;2023-03-12T07:36:39;2.70;99.90
15288;DHT22;7745;48.708;9.026;2023-03-12T07:39:06;2.70;99.90
15288;DHT22;7745;48.708;9.026;2023-03-12T07:41:33;2.80;99.90
15288;DHT22;7745;48.708;9.026;2023-03-12T07:44:01;2.80;99.90
15288;DHT22;7745;48.708;9.026;2023-03-12T07:46:28;2.90;99.90
15288;DHT22;7745;48.708;9.026;2023-03-12T07:48:56;2.90;99.90
15288;DHT22;7745;48.708;9.026;2023-03-12T07:51:23;3.00;99.90
15288;DHT22;7745;48.708;9.026;2023-03-12T07:53:50;3.10;99.90
15288;DHT22;7745;48.708;9.026;2023-03-12T07:56:17;3.20;99.90
15288;DHT22;7745;48.708;9.026;2023-03-12T07:58:44;3.30;99.90
15288;DHT22;7745;48.708;9.026;2023-03-12T08:01:11;3.40;99.90
15288;DHT22;7745;48.708;9.026;2023-03-12T08:03:37;3.50;99.90
15288;DHT22;7745;48.708;9.026;2023-03-12T08:06:06;3.70;99.90
15288;DHT22;7745;48.708;9.026;2023-03-12T08:08:33;3.90;99.90
15288;DHT22;7745;48.708;9.026;2023-03-12T08:11:02;4.00;99.90
15288;DHT22;7745;48.708;9.026;2023-03-12T08:13:29;4.30;99.90
15288;DHT22;7745;48.708;9.026;2023-03-12T08:15:56;4.10;99.90
15288;DHT22;7745;48.708;9.026;2023-03-12T08:18:24;4.00;99.90
15288;DHT22;7745;48.708;9.026;2023-03-12T08:20:52;4.00;99.90
15288;DHT22;7745;48.708;9.026;2023-03-12T08:23:20;4.00;99.90
15288;DHT22;7745;48.708;9.026;2023-03-12T08:25:48;4.30;99.90
15288;DHT22;7745;48.708;9.026;2023-03-12T08:28:16;4.00;99.90
15288;DHT22;7745;48.708;9.026;2023-03-12T08:30:47;4.00;99.90
15288;DHT22;7745;48.708;9.026;2023-03-12T08:33:14;4.00;99.90
15288;DHT22;7745;48.708;9.026;2023-03-12T08:35:41;4.10;99.90
15288;DHT22;7745;48.708;9.026;2023-03-12T08:38:08;4.20;99.90
15288;DHT22;7745;48.708;9.026;2023-03-12T08:40:36;4.30;99.90
15288;DHT22;7745;48.708;9.026;2023-03-12T08:43:03;4.50;99.90
15288;DHT22;7745;48.708;9.026;2023-03-12T08:45:32;4.70;99.90
15288;DHT22;7745;48.708;9.026;2023-03-12T08:48:00;5.10;99.90
15288;DHT22;7745;48.708;9.026;2023-03-12T08:50:27;5.30;99.90
15288;DHT22;7745;48.708;9.026;2023-03-12T08:52:56;5.10;99.90
15288;DHT22;7745;48.708;9.026;2023-03-12T08:55:23;5.20;99.90
15288;DHT22;7745;48.708;9.026;2023-03-12T08:57:52;5.20;99.90
15288;DHT22;7745;48.708;9.026;2023-03-12T09:00:19;5.20;99.90
15288;DHT22;7745;48.708;9.026;2023-03-12T09:02:46;5.30;99.90
15288;DHT22;7745;48.708;9.026;2023-03-12T09:05:14;5.40;99.90
15288;DHT22;7745;48.708;9.026;2023-03-12T09:07:41;5.50;99.90
15288;DHT22;7745;48.708;9.026;2023-03-12T09:10:09;5.70;99.90
15288;DHT22;7745;48.708;9.026;2023-03-12T09:12:35;5.70;99.90
15288;DHT22;7745;48.708;9.026;2023-03-12T09:15:05;5.80;99.90
15288;DHT22;7745;48.708;9.026;2023-03-12T09:17:32;5.80;99.90
15288;DHT22;7745;48.708;9.026;2023-03-12T09:19:59;5.90;99.90
15288;DHT22;7745;48.708;9.026;2023-03-12T09:22:27;6.00;99.90
15288;DHT22;7745;48.708;9.026;2023-03-12T09:24:54;6.10;99.90
15288;DHT22;7745;48.708;9.026;2023-03-12T09:27:21;6.10;99.90
15288;DHT22;7745;48.708;9.026;2023-03-12T09:29:48;6.20;99.90
15288;DHT22;7745;48.708;9.026;2023-03-12T09:32:17;6.30;99.90
15288;DHT22;7745;48.708;9.026;2023-03-12T09:34:44;6.40;99.90
15288;DHT22;7745;48.708;9.026;2023-03-12T09:37:10;6.40;99.90
15288;DHT22;7745;48.708;9.026;2023-03-12T09:39:37;6.50;99.90
15288;DHT22;7745;48.708;9.026;2023-03-12T09:42:05;6.50;99.90
15288;DHT22;7745;48.708;9.026;2023-03-12T09:44:39;6.50;99.90
15288;DHT22;7745;48.708;9.026;2023-03-12T09:47:10;6.50;99.90
15288;DHT22;7745;48.708;9.026;2023-03-12T09:49:45;6.50;99.90
15288;DHT22;7745;48.708;9.026;2023-03-12T09:52:18;6.50;99.90
15288;DHT22;7745;48.708;9.026;2023-03-12T09:54:51;6.50;99.90
15288;DHT22;7745;48.708;9.026;2023-03-12T09:57:23;6.50;99.90
15288;DHT22;7745;48.708;9.026;2023-03-12T09:59:51;6.60;99.90
15288;DHT22;7745;48.708;9.026;2023-03-12T10:02:36;6.70;99.90
15288;DHT22;7745;48.708;9.026;2023-03-12T10:05:13;6.70;99.90
15288;DHT22;7745;48.708;9.026;2023-03-12T10:07:47;6.90;99.90
15288;DHT22;7745;48.708;9.026;2023-03-12T10:10:28;6.90;99.90
15288;DHT22;7745;48.708;9.026;2023-03-12T10:13:11;7.00;99.90
15288;DHT22;7745;48.708;9.026;2023-03-12T10:15:48;7.10;99.90
15288;DHT22;7745;48.708;9.026;2023-03-12T10:18:24;7.10;99.90
15288;DHT22;7745;48.708;9.026;2023-03-12T10:21:09;7.20;99.90
15288;DHT22;7745;48.708;9.026;2023-03-12T10:23:53;7.40;99.90
15288;DHT22;7745;48.708;9.026;2023-03-12T10:26:24;7.50;99.90
15288;DHT22;7745;48.708;9.026;2023-03-12T10:28:58;7.70;99.90
15288;DHT22;7745;48.708;9.026;2023-03-12T10:31:29;7.70;99.90
15288;DHT22;7745;48.708;9.026;2023-03-12T10:33:58;7.80;99.90
15288;DHT22;7745;48.708;9.026;2023-03-12T10:36:32;7.80;99.90
15288;DHT22;7745;48.708;9.026;2023-03-12T10:38:59;7.80;99.90
15288;DHT22;7745;48.708;9.026;2023-03-12T10:41:28;7.90;99.90
15288;DHT22;7745;48.708;9.026;2023-03-12T10:43:58;7.90;99.90
15288;DHT22;7745;48.708;9.026;2023-03-12T10:46:40;7.90;99.90
15288;DHT22;7745;48.708;9.026;2023-03-12T10:49:30;8.00;99.90
15288;DHT22;7745;48.708;9.026;2023-03-12T10:52:05;8.40;99.90
15288;DHT22;7745;48.708;9.026;2023-03-12T10:54:34;8.80;99.90
15288;DHT22;7745;48.708;9.026;2023-03-12T10:57:02;8.70;99.90
15288;DHT22;7745;48.708;9.026;2023-03-12T10:59:32;9.00;99.90
15288;DHT22;7745;48.708;9.026;2023-03-12T11:02:00;9.20;99.90
15288;DHT22;7745;48.708;9.026;2023-03-12T11:04:29;9.30;99.90
15288;DHT22;7745;48.708;9.026;2023-03-12T11:07:15;9.60;99.90
15288;DHT22;7745;48.708;9.026;2023-03-12T11:09:43;9.50;99.90
15288;DHT22;7745;48.708;9.026;2023-03-12T11:12:24;9.80;99.90
15288;DHT22;7745;48.708;9.026;2023-03-12T11:14:51;9.70;99.90
15288;DHT22;7745;48.708;9.026;2023-03-12T11:17:20;10.10;99.90
15288;DHT22;7745;48.708;9.026;2023-03-12T11:19:48;9.90;99.90
15288;DHT22;7745;48.708;9.026;2023-03-12T11:22:27;9.90;99.90
15288;DHT22;7745;48.708;9.026;2023-03-12T11:24:56;9.70;99.90
15288;DHT22;7745;48.708;9.026;2023-03-12T11:27:29;9.70;99.90
15288;DHT22;7745;48.708;9.026;2023-03-12T11:29:58;9.60;99.90
15288;DHT22;7745;48.708;9.026;2023-03-12T11:32:30;9.60;99.90
15288;DHT22;7745;48.708;9.026;2023-03-12T11:34:58;9.80;99.90
15288;DHT22;7745;48.708;9.026;2023-03-12T11:37:35;9.60;99.90
15288;DHT22;7745;48.708;9.026;2023-03-12T11:40:15;9.60;99.90
15288;DHT22;7745;48.708;9.026;2023-03-12T11:42:52;9.70;99.90
15288;DHT22;7745;48.708;9.026;2023-03-12T11:45:26;10.00;99.90
15288;DHT22;7745;48.708;9.026;2023-03-12T11:48:11;9.80;99.90
15288;DHT22;7745;48.708;9.026;2023-03-12T11:50:49;9.80;99.90
15288;DHT22;7745;48.708;9.026;2023-03-12T11:53:37;9.80;99.90
15288;DHT22;7745;48.708;9.026;2023-03-12T11:56:16;9.90;99.90
15288;DHT22;7745;48.708;9.026;2023-03-12T11:59:11;9.90;99.90
15288;DHT22;7745;48.708;9.026;2023-03-12T12:01:54;10.00;99.90
15288;DHT22;7745;48.708;9.026;2023-03-12T12:04:46;10.10;99.90
15288;DHT22;7745;48.708;9.026;2023-03-12T12:07:21;10.10;99.90
15288;DHT22;7745;48.708;9.026;2023-03-12T12:09:58;10.10;99.90
15288;DHT22;7745;48.708;9.026;2023-03-12T12:12:39;10.20;99.90
15288;DHT22;7745;48.708;9.026;2023-03-12T12:15:13;10.10;99.90
15288;DHT22;7745;48.708;9.026;2023-03-12T12:17:53;10.10;99.90
15288;DHT22;7745;48.708;9.026;2023-03-12T12:20:30;10.10;99.90
15288;DHT22;7745;48.708;9.026;2023-03-12T12:23:13;10.30;99.90
15288;DHT22;7745;48.708;9.026;2023-03-12T12:25:52;10.40;99.90
15288;DHT22;7745;48.708;9.026;2023-03-12T12:31:34;10.60;99.90
15288;DHT22;7745;48.708;9.026;2023-03-12T12:34:20;10.80;99.90
15288;DHT22;7745;48.708;9.026;2023-03-12T12:36:52;10.90;99.90
15288;DHT22;7745;48.708;9.026;2023-03-12T12:39:28;11.10;99.90
15288;DHT22;7745;48.708;9.026;2023-03-12T12:42:03;11.40;99.90
15288;DHT22;7745;48.708;9.026;2023-03-12T12:44:34;11.10;99.90
15288;DHT22;7745;48.708;9.026;2023-03-12T12:47:04;11.00;99.90
15288;DHT22;7745;48.708;9.026;2023-03-12T12:49:38;10.90;99.90
15288;DHT22;7745;48.708;9.026;2023-03-12T12:52:10;10.80;99.90
15288;DHT22;7745;48.708;9.026;2023-03-12T12:54:43;10.90;99.90
15288;DHT22;7745;48.708;9.026;2023-03-12T12:57:19;10.60;99.90
15288;DHT22;7745;48.708;9.026;2023-03-12T13:00:02;10.50;99.90
15288;DHT22;7745;48.708;9.026;2023-03-12T13:02:38;10.40;99.90
15288;DHT22;7745;48.708;9.026;2023-03-12T13:05:18;10.30;99.90
15288;DHT22;7745;48.708;9.026;2023-03-12T13:07:45;10.30;99.90
15288;DHT22;7745;48.708;9.026;2023-03-12T13:10:41;10.20;99.90
15288;DHT22;7745;48.708;9.026;2023-03-12T13:13:12;10.30;99.90
15288;DHT22;7745;48.708;9.026;2023-03-12T13:15:43;10.30;99.90
15288;DHT22;7745;48.708;9.026;2023-03-12T13:18:22;10.40;99.90
15288;DHT22;7745;48.708;9.026;2023-03-12T13:21:11;10.50;99.90
15288;DHT22;7745;48.708;9.026;2023-03-12T13:23:48;10.40;99.90
15288;DHT22;7745;48.708;9.026;2023-03-12T13:26:19;10.40;99.90
15288;DHT22;7745;48.708;9.026;2023-03-12T13:28:59;10.40;99.90
15288;DHT22;7745;48.708;9.026;2023-03-12T13:31:37;10.30;99.90
15288;DHT22;7745;48.708;9.026;2023-03-12T13:34:40;10.30;99.90
15288;DHT22;7745;48.708;9.026;2023-03-12T13:37:19;10.20;99.90
15288;DHT22;7745;48.708;9.026;2023-03-12T13:39:46;10.20;99.90
15288;DHT22;7745;48.708;9.026;2023-03-12T13:42:35;10.30;99.90
15288;DHT22;7745;48.708;9.026;2023-03-12T13:45:23;10.40;99.90
15288;DHT22;7745;48.708;9.026;2023-03-12T13:47:54;10.50;99.90
15288;DHT22;7745;48.708;9.026;2023-03-12T13:50:25;10.50;99.90
15288;DHT22;7745;48.708;9.026;2023-03-12T13:53:01;10.60;99.90
15288;DHT22;7745;48.708;9.026;2023-03-12T13:55:30;10.70;99.90
15288;DHT22;7745;48.708;9.026;2023-03-12T13:58:03;10.70;99.90
15288;DHT22;7745;48.708;9.026;2023-03-12T14:00:37;10.70;99.90
15288;DHT22;7745;48.708;9.026;2023-03-12T14:03:12;10.70;99.90
15288;DHT22;7745;48.708;9.026;2023-03-12T14:05:47;10.70;99.90
15288;DHT22;7745;48.708;9.026;2023-03-12T14:08:37;10.80;99.90
15288;DHT22;7745;48.708;9.026;2023-03-12T14:11:29;10.80;99.90
15288;DHT22;7745;48.708;9.026;2023-03-12T14:16:59;10.90;99.90
15288;DHT22;7745;48.708;9.026;2023-03-12T14:19:27;11.00;99.90
15288;DHT22;7745;48.708;9.026;2023-03-12T14:22:00;10.90;99.90
15288;DHT22;7745;48.708;9.026;2023-03-12T14:24:32;10.80;99.90
15288;DHT22;7745;48.708;9.026;2023-03-12T14:27:00;10.80;99.90
15288;DHT22;7745;48.708;9.026;2023-03-12T14:29:28;10.80;99.90
15288;DHT22;7745;48.708;9.026;2023-03-12T14:32:01;11.00;99.90
15288;DHT22;7745;48.708;9.026;2023-03-12T14:34:32;10.80;99.90
15288;DHT22;7745;48.708;9.026;2023-03-12T14:37:08;10.80;99.90
15288;DHT22;7745;48.708;9.026;2023-03-12T14:39:43;10.70;99.90
15288;DHT22;7745;48.708;9.026;2023-03-12T14:42:19;10.60;99.90
15288;DHT22;7745;48.708;9.026;2023-03-12T14:44:54;10.70;99.90
15288;DHT22;7745;48.708;9.026;2023-03-12T14:47:22;10.70;99.90
15288;DHT22;7745;48.708;9.026;2023-03-12T14:49:49;10.60;99.90
15288;DHT22;7745;48.708;9.026;2023-03-12T14:52:22;10.80;99.90
15288;DHT22;7745;48.708;9.026;2023-03-12T14:54:54;11.00;99.90
15288;DHT22;7745;48.708;9.026;2023-03-12T14:57:21;11.10;99.90
15288;DHT22;7745;48.708;9.026;2023-03-12T14:59:51;11.10;99.90
15288;DHT22;7745;48.708;9.026;2023-03-12T15:02:19;11.10;99.90
15288;DHT22;7745;48.708;9.026;2023-03-12T15:04:47;11.10;99.90
15288;DHT22;7745;48.708;9.026;2023-03-12T15:07:18;11.10;99.90
15288;DHT22;7745;48.708;9.026;2023-03-12T15:09:49;11.20;99.90
15288;DHT22;7745;48.708;9.026;2023-03-12T15:12:18;11.10;99.90
15288;DHT22;7745;48.708;9.026;2023-03-12T15:14:47;11.00;99.90
15288;DHT22;7745;48.708;9.026;2023-03-12T15:17:17;11.10;99.90
15288;DHT22;7745;48.708;9.026;2023-03-12T15:19:45;11.10;99.90
15288;DHT22;7745;48.708;9.026;2023-03-12T15:22:14;11.10;99.90
15288;DHT22;7745;48.708;9.026;2023-03-12T15:24:42;11.00;99.90
15288;DHT22;7745;48.708;9.026;2023-03-12T15:27:30;11.00;99.90
15288;DHT22;7745;48.708;9.026;2023-03-12T15:29:59;10.90;99.90
15288;DHT22;7745;48.708;9.026;2023-03-12T15:32:27;10.80;99.90
15288;DHT22;7745;48.708;9.026;2023-03-12T15:34:56;10.80;99.90
15288;DHT22;7745;48.708;9.026;2023-03-12T15:37:24;10.70;99.90
15288;DHT22;7745;48.708;9.026;2023-03-12T15:39:58;10.90;99.90
15288;DHT22;7745;48.708;9.026;2023-03-12T15:42:27;10.70;99.90
15288;DHT22;7745;48.708;9.026;2023-03-12T15:44:56;10.80;99.90
15288;DHT22;7745;48.708;9.026;2023-03-12T15:47:26;10.80;99.90
15288;DHT22;7745;48.708;9.026;2023-03-12T15:49:55;10.80;99.90
15288;DHT22;7745;48.708;9.026;2023-03-12T15:52:30;10.80;99.90
15288;DHT22;7745;48.708;9.026;2023-03-12T15:55:17;10.80;99.90
15288;DHT22;7745;48.708;9.026;2023-03-12T15:57:49;10.80;99.90
15288;DHT22;7745;48.708;9.026;2023-03-12T16:00:20;10.80;99.90
15288;DHT22;7745;48.708;9.026;2023-03-12T16:02:50;10.70;99.90
15288;DHT22;7745;48.708;9.026;2023-03-12T16:05:18;10.70;99.90
15288;DHT22;7745;48.708;9.026;2023-03-12T16:07:46;11.30;99.90
15288;DHT22;7745;48.708;9.026;2023-03-12T16:10:14;10.70;99.90
15288;DHT22;7745;48.708;9.026;2023-03-12T16:12:42;10.70;99.90
15288;DHT22;7745;48.708;9.026;2023-03-12T16:15:14;10.70;99.90
15288;DHT22;7745;48.708;9.026;2023-03-12T16:17:41;10.70;99.90
15288;DHT22;7745;48.708;9.026;2023-03-12T16:20:11;10.60;99.90
15288;DHT22;7745;48.708;9.026;2023-03-12T16:22:38;10.60;99.90